createdAt,value
2022-09-02T00:00:19.094Z,16.9
2022-09-02T00:05:17.125Z,16.8
2022-09-02T00:10:15.262Z,16.9
2022-09-02T00:15:13.280Z,16.9
2022-09-02T00:20:11.152Z,16.8
2022-09-02T00:25:09.190Z,16.7
2022-09-02T00:30:07.146Z,16.8
2022-09-02T00:35:05.196Z,16.8
2022-09-02T00:40:07.274Z,16.8
2022-09-02T00:45:04.548Z,16.7
2022-09-02T00:50:02.494Z,16.7
2022-09-02T00:55:00.651Z,16.7
2022-09-02T00:59:58.798Z,16.7
2022-09-02T01:04:57.027Z,16.6
2022-09-02T01:09:54.888Z,16.7
2022-09-02T01:14:52.852Z,16.7
2022-09-02T01:19:51.239Z,16.6
2022-09-02T01:24:49.222Z,16.6
2022-09-02T01:29:47.328Z,16.5
2022-09-02T01:34:45.292Z,16.5
2022-09-02T01:39:43.468Z,16.5
2022-09-02T01:44:41.352Z,16.4
2022-09-02T01:49:39.411Z,16.4
2022-09-02T01:54:37.449Z,16.3
2022-09-02T01:59:35.510Z,16.2
2022-09-02T02:04:33.590Z,16.2
2022-09-02T02:09:31.480Z,16.1
2022-09-02T02:14:29.671Z,16.1
2022-09-02T02:19:27.569Z,16.1
2022-09-02T02:24:25.506Z,16
2022-09-02T02:29:23.444Z,15.9
2022-09-02T02:34:21.558Z,15.7
2022-09-02T02:39:19.520Z,15.6
2022-09-02T02:44:17.454Z,15.6
2022-09-02T02:49:15.463Z,15.7
2022-09-02T02:54:13.529Z,15.6
2022-09-02T02:59:11.785Z,15.7
2022-09-02T03:04:09.871Z,15.7
2022-09-02T03:09:08.120Z,15.7
2022-09-02T03:14:06.007Z,15.6
2022-09-02T03:19:03.979Z,15.6
2022-09-02T03:24:02.119Z,15.6
2022-09-02T03:29:00.130Z,15.5
2022-09-02T03:33:58.231Z,15.4
2022-09-02T03:38:56.106Z,15.4
2022-09-02T03:43:54.426Z,15.4
2022-09-02T03:48:52.522Z,15.4
2022-09-02T03:53:50.961Z,15.4
2022-09-02T03:58:49.291Z,15.4
2022-09-02T04:03:47.393Z,15.4
2022-09-02T04:08:45.382Z,15.4
2022-09-02T04:13:43.432Z,15.4
2022-09-02T04:18:41.851Z,15.5
2022-09-02T04:23:40.123Z,15.6
2022-09-02T04:28:38.205Z,15.6
2022-09-02T04:33:36.094Z,15.7
2022-09-02T04:38:34.281Z,15.8
2022-09-02T04:43:32.344Z,15.9
2022-09-02T04:48:30.542Z,15.9
2022-09-02T04:53:28.444Z,15.9
2022-09-02T04:58:26.609Z,16
2022-09-02T05:03:24.915Z,16
2022-09-02T05:08:23.190Z,16.1
2022-09-02T05:13:21.245Z,16.3
2022-09-02T05:18:19.441Z,16.5
2022-09-02T05:23:18.235Z,16.8
2022-09-02T05:28:16.437Z,17.1
2022-09-02T05:33:14.822Z,17.3
2022-09-02T05:38:12.959Z,17.2
2022-09-02T05:43:11.057Z,17.3
2022-09-02T05:48:09.308Z,17.6
2022-09-02T05:53:11.106Z,18
2022-09-02T05:58:06.255Z,18.4
2022-09-02T06:03:05.031Z,18.7
2022-09-02T06:08:03.635Z,19.3
2022-09-02T06:13:02.560Z,19.7
2022-09-02T06:18:00.904Z,19.6
2022-09-02T06:22:58.913Z,19.2
2022-09-02T06:27:57.291Z,19.5
2022-09-02T06:32:55.692Z,19.9
2022-09-02T06:37:53.854Z,20.1
2022-09-02T06:42:53.349Z,20.3
2022-09-02T06:47:51.562Z,21.1
2022-09-02T06:52:49.810Z,21
2022-09-02T06:57:46.483Z,20.8
2022-09-02T07:02:44.596Z,20.8
2022-09-02T07:07:42.771Z,21
2022-09-02T07:12:40.959Z,21.2
2022-09-02T07:17:39.528Z,20.7
2022-09-02T07:22:38.540Z,20.9
2022-09-02T07:27:36.578Z,21.1
2022-09-02T07:32:34.824Z,21.4
2022-09-02T07:37:33.359Z,21.8
2022-09-02T07:42:33.879Z,22.1
2022-09-02T07:47:31.781Z,22
2022-09-02T07:52:29.867Z,21.9
2022-09-02T07:57:27.791Z,21.9
2022-09-02T08:02:25.953Z,21.8
2022-09-02T08:07:23.826Z,21.5
2022-09-02T08:12:22.247Z,21.4
2022-09-02T08:17:19.453Z,21.2
2022-09-02T08:22:17.580Z,21.7
2022-09-02T08:27:16.450Z,22.5
2022-09-02T08:32:15.334Z,23.8
2022-09-02T08:37:14.951Z,24.8
2022-09-02T08:42:13.104Z,25
2022-09-02T08:47:10.931Z,24.4
2022-09-02T08:52:07.935Z,23.3
2022-09-02T08:57:05.635Z,23.1
2022-09-02T09:02:04.559Z,23.3
2022-09-02T09:07:03.480Z,25.4
2022-09-02T09:12:02.781Z,26.2
2022-09-02T09:17:01.501Z,27.8
2022-09-02T09:22:00.356Z,28
2022-09-02T09:26:57.593Z,27.4
2022-09-02T09:31:56.036Z,28.3
2022-09-02T09:36:56.961Z,30.9
2022-09-02T09:41:53.818Z,29
2022-09-02T09:46:50.365Z,27.8
2022-09-02T09:51:49.870Z,28.6
2022-09-02T09:56:46.854Z,28.4
2022-09-02T10:01:45.059Z,28.9
2022-09-02T10:06:44.379Z,29.6
2022-09-02T10:11:42.897Z,30.4
2022-09-02T10:16:41.482Z,30.2
2022-09-02T10:21:41.938Z,30.2
2022-09-02T10:26:36.666Z,29
2022-09-02T10:31:33.889Z,28.7
2022-09-02T10:36:33.366Z,29
2022-09-02T10:41:30.767Z,28.4
2022-09-02T10:46:31.296Z,30.2
2022-09-02T10:51:28.902Z,32.5
2022-09-02T10:56:29.993Z,34.3
2022-09-02T11:01:30.556Z,34.7
2022-09-02T11:06:40.187Z,37.1
2022-09-02T11:11:24.050Z,30.8
2022-09-02T11:16:23.635Z,35.7
2022-09-02T11:21:20.950Z,33.7
2022-09-02T11:26:21.162Z,36.5
2022-09-02T11:31:20.218Z,34.7
2022-09-02T11:36:16.314Z,32.3
2022-09-02T11:46:12.253Z,31.8
2022-09-02T11:51:08.548Z,30
2022-09-02T11:56:05.347Z,28.5
2022-09-02T12:01:02.610Z,28.1
2022-09-02T12:06:00.639Z,27.8
2022-09-02T12:10:59.030Z,27.7
2022-09-02T12:15:56.428Z,26.7
2022-09-02T12:20:53.781Z,27
2022-09-02T12:25:51.513Z,26.9
2022-09-02T12:30:50.417Z,27.9
2022-09-02T12:35:48.758Z,27.7
2022-09-02T12:40:46.066Z,25.5
2022-09-02T12:45:43.478Z,25.5
2022-09-02T12:50:41.170Z,24.3
2022-09-02T12:55:38.876Z,23.5
2022-09-02T13:00:36.702Z,23.3
2022-09-02T13:05:34.536Z,22.9
2022-09-02T13:10:32.256Z,22.1
2022-09-02T13:15:30.312Z,22.2
2022-09-02T13:20:28.370Z,22.5
2022-09-02T13:25:29.076Z,23.1
2022-09-02T13:30:25.628Z,23.4
2022-09-02T13:35:24.599Z,23.8
2022-09-02T13:40:23.399Z,24.8
2022-09-02T13:45:22.205Z,25.5
2022-09-02T13:50:19.803Z,24.6
2022-09-02T13:55:17.603Z,24.4
2022-09-02T14:00:14.852Z,23.1
2022-09-02T14:05:12.519Z,22.8
2022-09-02T14:10:10.534Z,22.8
2022-09-02T14:15:11.288Z,23
2022-09-02T14:20:09.097Z,22.6
2022-09-02T14:25:06.914Z,22.6
2022-09-02T14:30:04.736Z,22.4
2022-09-02T14:35:02.808Z,22
2022-09-02T14:40:01.085Z,21.8
2022-09-02T14:44:59.858Z,21.5
2022-09-02T14:49:58.743Z,21.1
2022-09-02T14:54:56.760Z,20.9
2022-09-02T14:59:54.915Z,20.6
2022-09-02T15:04:53.011Z,20.4
2022-09-02T15:09:50.659Z,20.5
2022-09-02T15:14:49.106Z,20.2
2022-09-02T15:19:47.376Z,19.6
2022-09-02T15:24:45.710Z,19.6
2022-09-02T15:29:44.168Z,19.6
2022-09-02T15:34:42.563Z,19.5
2022-09-02T15:39:41.104Z,19.1
2022-09-02T15:44:39.133Z,19.1
2022-09-02T15:49:37.522Z,18.9
2022-09-02T15:54:35.799Z,18.9
2022-09-02T15:59:34.174Z,18.1
2022-09-02T16:04:32.528Z,18
2022-09-02T16:09:30.887Z,18.4
2022-09-02T16:14:29.279Z,18.5
2022-09-02T16:19:29.918Z,18.4
2022-09-02T16:24:25.638Z,18
2022-09-02T16:29:23.917Z,17.5
2022-09-02T16:34:21.901Z,17.7
2022-09-02T16:39:20.179Z,17.5
2022-09-02T16:44:18.713Z,17.4
2022-09-02T16:49:17.237Z,17.6
2022-09-02T16:54:17.579Z,17.6
2022-09-02T16:59:13.571Z,17.4
2022-09-02T17:04:11.893Z,17.1
2022-09-02T17:09:10.850Z,17.1
2022-09-02T17:14:08.814Z,16.9
2022-09-02T17:19:06.964Z,16.9
2022-09-02T17:24:05.208Z,16.8
2022-09-02T17:29:03.657Z,16.8
2022-09-02T17:34:02.299Z,16.8
2022-09-02T17:39:00.951Z,16.6
2022-09-02T17:43:59.297Z,16.6
2022-09-02T17:49:15.626Z,16.6
2022-09-02T17:53:55.662Z,16.6
2022-09-02T17:58:55.155Z,16.7
2022-09-02T18:03:53.318Z,16.6
2022-09-02T18:08:52.099Z,16.7
2022-09-02T18:13:50.806Z,16.4
2022-09-02T18:18:48.925Z,16.4
2022-09-02T18:23:47.061Z,16.4
2022-09-02T18:28:45.106Z,16.4
2022-09-02T18:33:43.301Z,16.3
2022-09-02T18:38:41.278Z,16.2
2022-09-02T18:43:39.378Z,16
2022-09-02T18:48:37.336Z,15.9
2022-09-02T18:53:35.416Z,15.9
2022-09-02T18:58:33.756Z,16
2022-09-02T19:03:31.888Z,16
2022-09-02T19:08:30.003Z,16
2022-09-02T19:13:28.398Z,16
2022-09-02T19:18:26.379Z,15.9
2022-09-02T19:23:24.619Z,15.9
2022-09-02T19:28:22.780Z,15.8
2022-09-02T19:33:20.980Z,15.8
2022-09-02T19:38:19.458Z,15.7
2022-09-02T19:43:17.534Z,15.7
2022-09-02T19:48:15.425Z,15.6
2022-09-02T19:53:13.586Z,15.6
2022-09-02T19:58:11.986Z,15.5
2022-09-02T20:03:10.103Z,15.5
2022-09-02T20:08:08.252Z,15.5
2022-09-02T20:13:06.561Z,15.4
2022-09-02T20:18:04.604Z,15.3
2022-09-02T20:23:02.963Z,15.5
2022-09-02T20:28:01.244Z,15.4
2022-09-02T20:32:59.103Z,15.4
2022-09-02T20:37:57.340Z,15.4
2022-09-02T20:42:55.363Z,15.3
2022-09-02T20:47:53.440Z,15.3
2022-09-02T20:52:51.627Z,15.3
2022-09-02T20:57:49.681Z,15.2
2022-09-02T21:02:48.245Z,15.2
2022-09-02T21:07:46.324Z,15.3
2022-09-02T21:12:44.648Z,15.1
2022-09-02T21:17:48.699Z,15.2
2022-09-02T21:22:44.356Z,15.2
2022-09-02T21:27:42.744Z,15.1
2022-09-02T21:32:40.637Z,15.2
2022-09-02T21:37:38.926Z,15
2022-09-02T21:42:37.421Z,15
2022-09-02T21:47:35.507Z,15.1
2022-09-02T21:52:33.561Z,15
2022-09-02T21:57:31.740Z,15.1
2022-09-02T22:02:30.003Z,15
2022-09-02T22:07:28.032Z,15
2022-09-02T22:12:26.458Z,15
2022-09-02T22:17:24.636Z,15
2022-09-02T22:22:22.879Z,15
2022-09-02T22:27:21.184Z,15
2022-09-02T22:32:19.271Z,14.9
2022-09-02T22:37:17.413Z,14.4
2022-09-02T22:42:15.343Z,14.9
2022-09-02T22:47:13.407Z,14.9
2022-09-02T22:52:11.674Z,14.9
2022-09-02T22:57:09.929Z,14.8
2022-09-02T23:02:08.201Z,14.8
2022-09-02T23:07:06.622Z,14.7
2022-09-02T23:12:04.817Z,14.6
2022-09-02T23:17:02.921Z,14.7
2022-09-02T23:22:01.299Z,14.6
2022-09-02T23:26:59.446Z,14.5
2022-09-02T23:31:57.626Z,14.7
2022-09-02T23:36:55.861Z,14.6
2022-09-02T23:41:54.104Z,14.6
2022-09-02T23:46:52.733Z,14.5
2022-09-02T23:51:52.044Z,14.6
2022-09-02T23:56:50.274Z,14.6
